Time;durP1;ratioP1;P1;durP2;ratioP2;P2;SDS_P1;SDS_P2;PMS_P1;PMS_P2;Temp;Humidity;BMP_temperature;BMP_pressure;BME280_temperature;BME280_humidity;BME280_pressure;Samples;Min_cycle;Max_cycle;Signal;HPM_P1;HPM_P2
2023/06/08 00:01:41;;;;;;;7.63;4.90;;;;;;;;;;5038202;28;20960;-65
2023/06/08 00:04:07;;;;;;;10.88;4.50;;;;;;;;;;5040464;28;20053;-65
2023/06/08 00:06:34;;;;;;;9.32;4.55;;;;;;;;;;5042314;28;20555;-65
2023/06/08 00:09:04;;;;;;;7.90;4.43;;;;;;;;;;5021159;28;20053;-65
2023/06/08 00:11:32;;;;;;;8.57;4.22;;;;;;;;;;5042644;28;20085;-65
2023/06/08 00:13:59;;;;;;;8.82;4.30;;;;;;;;;;5039931;28;20068;-65
2023/06/08 00:16:27;;;;;;;12.98;4.90;;;;;;;;;;5041146;28;20128;-65
2023/06/08 00:18:56;;;;;;;13.73;4.53;;;;;;;;;;5041255;28;20133;-65
2023/06/08 00:21:23;;;;;;;7.47;4.80;;;;;;;;;;5042436;28;20439;-65
2023/06/08 00:23:50;;;;;;;9.05;4.35;;;;;;;;;;5045460;28;20081;-65
2023/06/08 00:26:17;;;;;;;8.35;5.05;;;;;;;;;;5044653;28;20119;-65
2023/06/08 00:28:46;;;;;;;9.85;4.25;;;;;;;;;;5045342;28;20060;-65
2023/06/08 00:31:12;;;;;;;11.65;4.40;;;;;;;;;;5026804;28;20053;-65
2023/06/08 00:33:39;;;;;;;8.82;4.18;;;;;;;;;;5044401;28;20099;-65
2023/06/08 00:36:05;;;;;;;12.40;5.65;;;;;;;;;;5044579;28;20053;-65
2023/06/08 00:38:32;;;;;;;12.63;5.07;;;;;;;;;;5043696;28;20939;-64
2023/06/08 00:40:58;;;;;;;8.77;4.88;;;;;;;;;;5044350;28;20140;-65
2023/06/08 00:43:24;;;;;;;6.15;3.97;;;;;;;;;;5043167;28;20056;-65
2023/06/08 00:45:51;;;;;;;12.32;4.20;;;;;;;;;;5044464;28;20103;-65
2023/06/08 00:48:18;;;;;;;8.40;4.70;;;;;;;;;;5031324;28;20057;-65
2023/06/08 00:50:45;;;;;;;6.80;4.88;;;;;;;;;;5043623;28;20140;-65
2023/06/08 00:53:12;;;;;;;7.50;4.47;;;;;;;;;;5043340;28;20061;-65
2023/06/08 00:55:39;;;;;;;10.60;4.78;;;;;;;;;;5045490;28;20057;-65
2023/06/08 00:58:13;;;;;;;7.45;5.10;;;;;;;;;;5044036;28;20073;-65
2023/06/08 01:00:39;;;;;;;8.50;4.70;;;;;;;;;;5026393;28;20058;-65
2023/06/08 01:03:06;;;;;;;12.02;6.00;;;;;;;;;;5041453;28;20573;-66
2023/06/08 01:05:33;;;;;;;15.18;5.75;;;;;;;;;;5044482;28;20501;-65
2023/06/08 01:08:12;;;;;;;10.60;4.97;;;;;;;;;;5043576;28;20054;-65
2023/06/08 01:10:42;;;;;;;13.85;4.78;;;;;;;;;;5044924;28;20084;-65
2023/06/08 01:13:10;;;;;;;7.53;4.50;;;;;;;;;;5042808;28;20116;-65
2023/06/08 01:15:39;;;;;;;8.60;4.45;;;;;;;;;;5025877;28;20057;-65
2023/06/08 01:18:07;;;;;;;8.93;4.32;;;;;;;;;;5043307;28;20045;-65
2023/06/08 01:20:34;;;;;;;6.07;3.90;;;;;;;;;;5039012;28;20471;-65
2023/06/08 01:23:16;;;;;;;9.77;4.78;;;;;;;;;;5043536;28;20606;-65
2023/06/08 01:25:43;;;;;;;9.93;4.50;;;;;;;;;;5043264;28;20962;-65
2023/06/08 01:28:12;;;;;;;10.18;4.65;;;;;;;;;;5043079;28;20177;-65
2023/06/08 01:30:40;;;;;;;9.88;5.10;;;;;;;;;;5043156;28;20471;-65
2023/06/08 01:33:09;;;;;;;6.95;4.85;;;;;;;;;;5041517;28;20057;-65
2023/06/08 01:35:36;;;;;;;9.82;5.13;;;;;;;;;;5044983;28;21482;-65
2023/06/08 01:38:10;;;;;;;10.20;5.32;;;;;;;;;;5042786;28;20104;-65
2023/06/08 01:40:40;;;;;;;12.60;5.30;;;;;;;;;;5044282;28;20058;-65
2023/06/08 01:43:08;;;;;;;19.08;5.63;;;;;;;;;;5024081;28;20377;-65
2023/06/08 01:45:38;;;;;;;8.75;5.22;;;;;;;;;;5043599;28;20056;-65
2023/06/08 01:48:05;;;;;;;11.20;5.35;;;;;;;;;;5044798;28;20057;-65
2023/06/08 01:50:32;;;;;;;13.00;5.38;;;;;;;;;;5042579;28;20045;-65
2023/06/08 01:52:59;;;;;;;9.00;5.57;;;;;;;;;;5039400;28;20050;-65
2023/06/08 01:55:27;;;;;;;12.25;5.38;;;;;;;;;;5035991;28;20944;-65
2023/06/08 01:57:55;;;;;;;13.82;5.35;;;;;;;;;;5043428;28;20046;-65
2023/06/08 02:00:21;;;;;;;11.68;5.95;;;;;;;;;;5042358;28;21313;-65
2023/06/08 02:02:47;;;;;;;11.45;6.25;;;;;;;;;;5043558;28;20056;-65
2023/06/08 02:05:15;;;;;;;9.80;5.70;;;;;;;;;;5043715;28;20057;-65
2023/06/08 02:07:41;;;;;;;12.57;5.25;;;;;;;;;;5044114;28;20060;-65
2023/06/08 02:10:09;;;;;;;11.38;5.95;;;;;;;;;;5044797;28;20046;-65
2023/06/08 02:12:35;;;;;;;9.38;5.03;;;;;;;;;;5040793;28;20890;-65
2023/06/08 02:15:01;;;;;;;11.55;5.68;;;;;;;;;;5042257;28;20115;-65
2023/06/08 02:17:33;;;;;;;10.45;5.88;;;;;;;;;;5043624;28;20175;-65
2023/06/08 02:20:06;;;;;;;10.15;4.90;;;;;;;;;;5044025;28;20084;-65
2023/06/08 02:22:33;;;;;;;12.73;6.00;;;;;;;;;;5042412;28;20064;-65
2023/06/08 02:25:00;;;;;;;10.63;6.15;;;;;;;;;;5025197;28;20145;-65
2023/06/08 02:27:27;;;;;;;13.63;6.25;;;;;;;;;;5042759;28;20061;-65
2023/06/08 02:29:54;;;;;;;9.65;5.47;;;;;;;;;;5042462;28;20075;-65
2023/06/08 02:32:21;;;;;;;8.02;5.10;;;;;;;;;;5043917;28;20156;-65
2023/06/08 02:34:53;;;;;;;8.02;5.53;;;;;;;;;;5042924;28;20455;-65
2023/06/08 02:37:19;;;;;;;12.07;5.95;;;;;;;;;;5043033;28;20081;-65
2023/06/08 02:39:46;;;;;;;9.98;5.25;;;;;;;;;;5042568;28;20099;-65
2023/06/08 02:42:12;;;;;;;10.48;5.82;;;;;;;;;;5043335;28;20887;-65
2023/06/08 02:44:38;;;;;;;10.27;5.93;;;;;;;;;;5044571;28;20056;-65
2023/06/08 02:47:05;;;;;;;11.73;6.60;;;;;;;;;;5043546;28;20563;-66
2023/06/08 02:49:31;;;;;;;10.90;6.43;;;;;;;;;;5042177;28;20502;-65
2023/06/08 02:51:57;;;;;;;9.80;5.90;;;;;;;;;;5041873;28;20050;-65
2023/06/08 02:54:24;;;;;;;12.20;6.40;;;;;;;;;;5042344;28;20053;-65
2023/06/08 02:56:50;;;;;;;10.07;6.00;;;;;;;;;;5042599;28;20053;-64
2023/06/08 02:59:17;;;;;;;12.68;6.30;;;;;;;;;;5040580;28;20053;-65
2023/06/08 03:01:52;;;;;;;12.68;6.68;;;;;;;;;;5041923;28;20088;-65
2023/06/08 03:04:19;;;;;;;10.23;6.80;;;;;;;;;;5033640;28;20056;-65
2023/06/08 03:06:46;;;;;;;8.95;5.70;;;;;;;;;;5041356;28;20055;-65
2023/06/08 03:09:13;;;;;;;16.67;7.00;;;;;;;;;;5041999;28;20063;-65
2023/06/08 03:11:39;;;;;;;14.80;6.20;;;;;;;;;;5043575;28;20553;-65
2023/06/08 03:14:06;;;;;;;10.35;6.57;;;;;;;;;;5043189;28;20857;-65
2023/06/08 03:16:32;;;;;;;9.60;6.50;;;;;;;;;;5027120;28;20861;-64
2023/06/08 03:18:59;;;;;;;14.23;7.25;;;;;;;;;;5041380;28;20462;-65
2023/06/08 03:21:28;;;;;;;10.32;6.57;;;;;;;;;;5042918;28;20057;-65
2023/06/08 03:23:55;;;;;;;14.63;7.10;;;;;;;;;;5041770;28;20049;-65
2023/06/08 03:26:24;;;;;;;14.73;6.32;;;;;;;;;;5042160;28;20085;-65
2023/06/08 03:28:52;;;;;;;12.57;6.18;;;;;;;;;;5042016;28;20092;-65
2023/06/08 03:31:20;;;;;;;12.90;6.78;;;;;;;;;;5041173;28;20054;-65
2023/06/08 03:33:47;;;;;;;13.57;6.88;;;;;;;;;;5042539;28;20438;-65
2023/06/08 03:36:14;;;;;;;14.63;6.75;;;;;;;;;;5043404;28;20141;-65
2023/06/08 03:38:40;;;;;;;14.23;6.40;;;;;;;;;;5041584;28;20054;-65
2023/06/08 03:41:08;;;;;;;14.30;7.35;;;;;;;;;;5040655;28;20136;-65
2023/06/08 03:43:35;;;;;;;14.38;7.22;;;;;;;;;;5039628;28;20046;-65
2023/06/08 03:46:01;;;;;;;15.10;6.90;;;;;;;;;;5042600;28;20689;-65
2023/06/08 03:48:28;;;;;;;11.23;6.80;;;;;;;;;;5041698;28;20058;-65
2023/06/08 03:50:54;;;;;;;10.90;6.40;;;;;;;;;;5041118;28;20107;-65
2023/06/08 03:53:21;;;;;;;11.98;6.45;;;;;;;;;;5044748;28;20140;-65
2023/06/08 03:55:47;;;;;;;9.93;6.68;;;;;;;;;;5044575;28;20060;-65
2023/06/08 03:58:13;;;;;;;13.50;7.15;;;;;;;;;;5046102;28;20523;-64
2023/06/08 04:00:41;;;;;;;9.98;6.22;;;;;;;;;;5043507;28;20065;-65
2023/06/08 04:03:09;;;;;;;13.05;7.40;;;;;;;;;;5045674;28;20537;-65
2023/06/08 04:05:36;;;;;;;17.15;7.22;;;;;;;;;;5044574;28;20057;-65
2023/06/08 04:08:03;;;;;;;11.25;7.40;;;;;;;;;;5046001;28;20089;-65
2023/06/08 04:10:30;;;;;;;16.38;7.45;;;;;;;;;;5027250;28;20053;-65
2023/06/08 04:12:56;;;;;;;9.45;7.30;;;;;;;;;;5042875;28;20057;-65
2023/06/08 04:15:23;;;;;;;19.55;8.70;;;;;;;;;;5045693;28;20053;-65
2023/06/08 04:17:50;;;;;;;15.70;7.65;;;;;;;;;;5045752;28;20107;-65
2023/06/08 04:20:17;;;;;;;12.20;7.20;;;;;;;;;;5044466;28;20054;-65
2023/06/08 04:22:43;;;;;;;13.77;8.43;;;;;;;;;;5045464;28;20123;-65
2023/06/08 04:25:10;;;;;;;12.73;7.68;;;;;;;;;;5043899;28;20053;-65
2023/06/08 04:27:37;;;;;;;16.42;8.80;;;;;;;;;;5043096;28;20053;-65
2023/06/08 04:30:04;;;;;;;12.48;7.75;;;;;;;;;;5033205;28;20089;-65
2023/06/08 04:32:31;;;;;;;17.40;8.38;;;;;;;;;;5041247;28;20424;-65
2023/06/08 04:34:57;;;;;;;15.88;8.40;;;;;;;;;;5038633;28;20068;-65
2023/06/08 04:37:24;;;;;;;13.32;8.25;;;;;;;;;;5042635;28;20140;-65
2023/06/08 04:39:50;;;;;;;11.32;8.50;;;;;;;;;;5044862;28;20049;-65
2023/06/08 04:42:17;;;;;;;10.27;7.90;;;;;;;;;;5045351;28;20446;-65
2023/06/08 04:44:43;;;;;;;15.23;9.15;;;;;;;;;;5044303;28;20084;-65
2023/06/08 04:47:10;;;;;;;15.57;8.73;;;;;;;;;;5025247;28;20050;-65
2023/06/08 04:49:37;;;;;;;16.10;8.27;;;;;;;;;;5043337;28;20054;-65
2023/06/08 04:52:06;;;;;;;18.25;8.45;;;;;;;;;;5043413;28;20444;-64
2023/06/08 04:54:33;;;;;;;13.93;7.88;;;;;;;;;;5044632;28;20664;-65
2023/06/08 04:56:59;;;;;;;15.90;9.30;;;;;;;;;;5043803;28;20055;-65
2023/06/08 04:59:26;;;;;;;15.02;7.90;;;;;;;;;;5044164;28;20137;-65
2023/06/08 05:01:53;;;;;;;15.25;7.68;;;;;;;;;;5042196;28;20053;-65
2023/06/08 05:04:19;;;;;;;14.52;8.55;;;;;;;;;;5042646;28;20057;-65
2023/06/08 05:06:46;;;;;;;15.25;8.23;;;;;;;;;;5042460;28;20080;-65
2023/06/08 05:09:12;;;;;;;15.32;9.43;;;;;;;;;;5043022;28;20511;-65
2023/06/08 05:11:39;;;;;;;16.42;8.00;;;;;;;;;;5045888;28;20097;-64
2023/06/08 05:14:10;;;;;;;14.32;7.95;;;;;;;;;;5043508;28;20053;-65
2023/06/08 05:16:37;;;;;;;13.52;8.48;;;;;;;;;;5044144;28;20053;-64
2023/06/08 05:19:04;;;;;;;13.80;8.60;;;;;;;;;;5043879;28;20487;-65
2023/06/08 05:21:32;;;;;;;19.27;8.55;;;;;;;;;;5046172;28;20058;-65
2023/06/08 05:23:58;;;;;;;12.52;8.15;;;;;;;;;;5041777;28;20058;-65
2023/06/08 05:26:25;;;;;;;20.45;8.10;;;;;;;;;;5026959;28;20053;-65
2023/06/08 05:28:51;;;;;;;15.50;8.05;;;;;;;;;;5045045;28;20200;-65
2023/06/08 05:31:17;;;;;;;19.02;8.13;;;;;;;;;;5043123;28;20902;-65
2023/06/08 05:33:44;;;;;;;22.75;8.57;;;;;;;;;;5042714;28;20053;-65
2023/06/08 05:36:10;;;;;;;21.15;7.47;;;;;;;;;;5043837;28;20325;-65
2023/06/08 05:38:37;;;;;;;15.18;7.55;;;;;;;;;;5045298;28;20057;-65
2023/06/08 05:41:03;;;;;;;13.52;7.80;;;;;;;;;;5043219;28;20108;-65
2023/06/08 05:43:30;;;;;;;11.02;6.40;;;;;;;;;;5042920;28;20092;-66
2023/06/08 05:45:56;;;;;;;15.32;7.13;;;;;;;;;;5043278;28;20545;-65
2023/06/08 05:48:22;;;;;;;12.65;6.57;;;;;;;;;;5024718;28;20161;-65
2023/06/08 05:50:49;;;;;;;9.00;6.30;;;;;;;;;;5042042;28;20115;-65
2023/06/08 05:53:15;;;;;;;16.02;7.22;;;;;;;;;;5042275;28;20057;-65
2023/06/08 05:55:42;;;;;;;13.13;6.55;;;;;;;;;;5047508;28;20127;-64
2023/06/08 05:58:08;;;;;;;14.88;7.18;;;;;;;;;;5040262;28;20057;-63
2023/06/08 06:00:35;;;;;;;11.00;7.43;;;;;;;;;;5042630;28;20072;-61
2023/06/08 06:03:01;;;;;;;12.55;7.68;;;;;;;;;;5042171;28;20436;-63
2023/06/08 06:05:29;;;;;;;17.42;7.97;;;;;;;;;;5048251;28;20053;-63
2023/06/08 06:07:56;;;;;;;15.00;6.93;;;;;;;;;;5042325;28;20806;-63
2023/06/08 06:10:22;;;;;;;13.05;6.72;;;;;;;;;;5043372;28;20060;-63
2023/06/08 06:12:49;;;;;;;12.93;7.40;;;;;;;;;;5046239;28;20057;-64
2023/06/08 06:15:15;;;;;;;11.15;6.80;;;;;;;;;;5050830;28;20049;-64
2023/06/08 06:17:42;;;;;;;14.85;7.68;;;;;;;;;;5046486;28;20057;-63
2023/06/08 06:20:08;;;;;;;10.85;6.60;;;;;;;;;;5041465;28;20831;-64
2023/06/08 06:22:35;;;;;;;12.48;7.80;;;;;;;;;;5041927;28;20674;-64
2023/06/08 06:25:01;;;;;;;14.02;7.13;;;;;;;;;;5039359;28;20061;-64
2023/06/08 06:27:28;;;;;;;10.05;6.80;;;;;;;;;;5043641;28;20050;-64
2023/06/08 06:29:54;;;;;;;14.85;7.35;;;;;;;;;;5039823;28;20057;-65
2023/06/08 06:32:21;;;;;;;16.92;7.22;;;;;;;;;;5039804;28;20065;-62
2023/06/08 06:34:47;;;;;;;11.88;6.57;;;;;;;;;;5041772;28;20054;-63
2023/06/08 06:37:14;;;;;;;11.02;7.07;;;;;;;;;;5040146;28;20053;-63
2023/06/08 06:39:40;;;;;;;14.73;7.18;;;;;;;;;;5048931;28;20061;-62
2023/06/08 06:42:07;;;;;;;14.63;6.85;;;;;;;;;;5041469;28;20127;-62
2023/06/08 06:44:33;;;;;;;20.48;10.70;;;;;;;;;;5043175;28;20144;-62
2023/06/08 06:47:00;;;;;;;12.52;7.13;;;;;;;;;;5042071;28;20053;-63
2023/06/08 06:49:26;;;;;;;8.27;6.63;;;;;;;;;;5031132;28;20137;-63
2023/06/08 06:51:52;;;;;;;7.10;5.97;;;;;;;;;;5044285;28;20546;-64
2023/06/08 06:54:21;;;;;;;12.05;5.93;;;;;;;;;;5042679;28;20642;-64
2023/06/08 06:56:47;;;;;;;10.82;6.18;;;;;;;;;;5022417;28;20060;-65
2023/06/08 06:59:14;;;;;;;14.00;8.18;;;;;;;;;;5046685;28;20053;-66
2023/06/08 07:01:41;;;;;;;11.40;5.80;;;;;;;;;;5043605;28;20057;-65
2023/06/08 07:04:07;;;;;;;13.95;7.20;;;;;;;;;;5055413;28;20053;-65
2023/06/08 07:06:34;;;;;;;12.25;6.75;;;;;;;;;;5044916;28;20049;-65
2023/06/08 07:09:00;;;;;;;16.23;6.78;;;;;;;;;;5042505;28;20143;-63
2023/06/08 07:11:26;;;;;;;9.70;5.75;;;;;;;;;;5041104;28;20081;-65
2023/06/08 07:13:53;;;;;;;9.02;5.60;;;;;;;;;;5036122;28;20472;-65
2023/06/08 07:16:21;;;;;;;11.35;6.93;;;;;;;;;;5042802;28;20236;-64
2023/06/08 07:18:52;;;;;;;10.75;6.05;;;;;;;;;;5042491;28;20589;-64
2023/06/08 07:21:21;;;;;;;11.00;7.22;;;;;;;;;;5042374;28;20438;-64
2023/06/08 07:23:49;;;;;;;15.68;6.78;;;;;;;;;;5040352;28;20053;-64
2023/06/08 07:26:36;;;;;;;14.48;6.55;;;;;;;;;;5023964;28;20058;-64
2023/06/08 07:29:03;;;;;;;13.90;6.93;;;;;;;;;;5042692;28;20896;-64
2023/06/08 07:31:29;;;;;;;14.35;6.93;;;;;;;;;;5043285;28;20116;-63
2023/06/08 07:33:58;;;;;;;12.73;6.82;;;;;;;;;;5025475;28;20121;-64
2023/06/08 07:36:28;;;;;;;15.50;8.60;;;;;;;;;;5041267;28;20050;-63
2023/06/08 07:38:56;;;;;;;12.07;6.97;;;;;;;;;;5043326;28;20053;-63
2023/06/08 07:41:24;;;;;;;11.43;7.45;;;;;;;;;;5030354;28;20522;-64
2023/06/08 07:43:51;;;;;;;12.68;6.57;;;;;;;;;;5058341;28;20517;-64
2023/06/08 07:46:17;;;;;;;12.65;6.95;;;;;;;;;;5047043;28;20057;-64
2023/06/08 07:48:43;;;;;;;12.50;6.55;;;;;;;;;;5053013;28;20119;-64
2023/06/08 07:51:10;;;;;;;12.88;6.82;;;;;;;;;;5040697;28;20050;-64
2023/06/08 07:53:37;;;;;;;16.10;7.88;;;;;;;;;;5042905;28;20108;-64
2023/06/08 07:56:03;;;;;;;13.68;6.78;;;;;;;;;;5055070;28;20107;-64
2023/06/08 07:58:31;;;;;;;14.60;6.55;;;;;;;;;;5048427;28;20124;-64
2023/06/08 08:00:58;;;;;;;12.63;7.03;;;;;;;;;;5041678;28;20068;-63
2023/06/08 08:03:24;;;;;;;19.05;8.15;;;;;;;;;;5042545;28;20058;-63
2023/06/08 08:05:51;;;;;;;11.52;6.85;;;;;;;;;;5040695;28;20063;-63
2023/06/08 08:08:18;;;;;;;12.15;6.88;;;;;;;;;;5040548;28;20587;-63
2023/06/08 08:10:44;;;;;;;8.10;6.40;;;;;;;;;;5042007;28;20585;-64
2023/06/08 08:13:12;;;;;;;14.45;7.85;;;;;;;;;;5051886;28;20132;-64
2023/06/08 08:15:40;;;;;;;9.63;6.40;;;;;;;;;;5041609;28;20081;-65
2023/06/08 08:18:06;;;;;;;10.70;5.93;;;;;;;;;;5042575;28;20057;-64
2023/06/08 08:20:33;;;;;;;11.32;6.22;;;;;;;;;;5042645;28;20049;-64
2023/06/08 08:22:59;;;;;;;12.85;6.40;;;;;;;;;;5042408;28;20108;-65
2023/06/08 08:25:26;;;;;;;8.85;6.03;;;;;;;;;;5041071;28;20441;-65
2023/06/08 08:27:52;;;;;;;14.77;7.32;;;;;;;;;;5042802;28;20054;-65
2023/06/08 08:30:19;;;;;;;16.15;6.93;;;;;;;;;;5047442;28;20565;-64
2023/06/08 08:32:45;;;;;;;15.70;6.43;;;;;;;;;;5042468;28;20057;-64
2023/06/08 08:35:12;;;;;;;15.15;6.07;;;;;;;;;;5043342;28;20085;-64
2023/06/08 08:37:38;;;;;;;13.60;6.65;;;;;;;;;;5044834;28;20065;-64
2023/06/08 08:40:09;;;;;;;12.98;5.57;;;;;;;;;;5045042;28;20057;-64
2023/06/08 08:42:41;;;;;;;9.48;5.78;;;;;;;;;;5044480;28;20055;-65
2023/06/08 08:45:09;;;;;;;9.35;6.03;;;;;;;;;;5043267;28;20085;-64
2023/06/08 08:47:37;;;;;;;15.52;6.13;;;;;;;;;;5044858;28;20795;-63
2023/06/08 08:50:06;;;;;;;12.45;5.85;;;;;;;;;;5040344;28;20503;-64
2023/06/08 08:52:37;;;;;;;14.02;6.03;;;;;;;;;;5043768;28;20058;-64
2023/06/08 08:55:04;;;;;;;12.77;6.45;;;;;;;;;;5048835;28;20046;-64
2023/06/08 08:57:31;;;;;;;13.32;6.28;;;;;;;;;;5053898;28;20534;-64
2023/06/08 08:59:58;;;;;;;11.27;6.45;;;;;;;;;;5042955;28;20058;-64
2023/06/08 09:02:25;;;;;;;11.38;6.05;;;;;;;;;;5044242;28;20053;-65
2023/06/08 09:04:52;;;;;;;15.98;7.18;;;;;;;;;;5044251;28;20053;-65
2023/06/08 09:07:20;;;;;;;14.77;6.53;;;;;;;;;;5017062;28;20630;-64
2023/06/08 09:10:09;;;;;;;14.40;6.43;;;;;;;;;;5063382;28;20085;-64
2023/06/08 09:12:39;;;;;;;9.13;6.18;;;;;;;;;;5032541;28;20481;-64
2023/06/08 09:15:07;;;;;;;17.20;7.07;;;;;;;;;;5043677;28;20057;-64
2023/06/08 09:17:37;;;;;;;11.77;6.45;;;;;;;;;;5044154;28;20053;-63
2023/06/08 09:20:08;;;;;;;14.02;6.30;;;;;;;;;;5043538;28;20085;-65
2023/06/08 09:22:37;;;;;;;9.52;5.68;;;;;;;;;;5044192;28;20108;-66
2023/06/08 09:25:05;;;;;;;8.82;5.60;;;;;;;;;;5044013;28;20081;-66
2023/06/08 09:27:32;;;;;;;10.48;6.15;;;;;;;;;;5025394;28;20109;-65
2023/06/08 09:30:00;;;;;;;10.45;5.57;;;;;;;;;;5043552;28;20060;-64
2023/06/08 09:32:31;;;;;;;10.50;5.78;;;;;;;;;;5059063;28;20106;-64
2023/06/08 09:35:04;;;;;;;15.82;7.28;;;;;;;;;;5042928;28;20052;-64
2023/06/08 09:37:37;;;;;;;11.57;6.32;;;;;;;;;;5046738;28;20052;-64
2023/06/08 09:40:09;;;;;;;10.38;5.40;;;;;;;;;;5045760;28;20514;-64
2023/06/08 09:42:44;;;;;;;13.82;7.13;;;;;;;;;;5043219;28;20049;-65
2023/06/08 09:45:12;;;;;;;10.60;5.93;;;;;;;;;;5042860;28;20062;-63
2023/06/08 09:47:39;;;;;;;8.38;5.47;;;;;;;;;;5044810;28;20307;-64
2023/06/08 09:50:06;;;;;;;9.35;6.03;;;;;;;;;;5044025;28;20066;-64
2023/06/08 09:52:33;;;;;;;13.82;5.80;;;;;;;;;;5041931;28;20053;-63
2023/06/08 09:55:00;;;;;;;10.93;6.20;;;;;;;;;;5026753;28;20064;-64
2023/06/08 09:57:27;;;;;;;8.48;5.88;;;;;;;;;;5044197;28;20111;-63
2023/06/08 10:00:17;;;;;;;12.15;6.60;;;;;;;;;;5044682;28;20590;-63
2023/06/08 10:02:53;;;;;;;10.88;6.05;;;;;;;;;;5032226;28;20057;-63
2023/06/08 10:05:22;;;;;;;10.65;5.95;;;;;;;;;;5045551;28;20061;-64
2023/06/08 10:07:51;;;;;;;13.30;6.43;;;;;;;;;;5064729;28;20084;-64
2023/06/08 10:10:20;;;;;;;12.93;5.70;;;;;;;;;;5058497;28;20057;-64
2023/06/08 10:12:47;;;;;;;7.25;5.22;;;;;;;;;;5036084;28;20068;-65
2023/06/08 10:15:13;;;;;;;8.68;5.85;;;;;;;;;;5042821;28;20068;-64
2023/06/08 10:17:40;;;;;;;11.23;5.80;;;;;;;;;;5026135;28;20054;-64
2023/06/08 10:20:07;;;;;;;9.30;5.70;;;;;;;;;;5043667;28;20065;-65
2023/06/08 10:22:36;;;;;;;10.32;5.90;;;;;;;;;;5044323;28;20054;-64
2023/06/08 10:25:03;;;;;;;13.50;6.07;;;;;;;;;;5043759;28;20145;-63
2023/06/08 10:27:35;;;;;;;8.27;5.72;;;;;;;;;;5041642;28;20050;-61
2023/06/08 10:30:04;;;;;;;9.02;5.85;;;;;;;;;;5027427;28;20072;-66
2023/06/08 10:32:31;;;;;;;18.80;5.32;;;;;;;;;;5042152;28;20077;-63
2023/06/08 10:34:58;;;;;;;14.50;5.18;;;;;;;;;;5044349;28;20104;-63
2023/06/08 10:37:29;;;;;;;7.18;5.05;;;;;;;;;;5024883;28;20053;-63
2023/06/08 10:39:57;;;;;;;9.10;5.13;;;;;;;;;;5044042;28;20053;-66
2023/06/08 10:42:23;;;;;;;11.20;5.85;;;;;;;;;;5043880;28;20050;-64
2023/06/08 10:44:54;;;;;;;12.57;5.63;;;;;;;;;;5042862;28;20057;-63
2023/06/08 10:47:20;;;;;;;10.32;4.72;;;;;;;;;;5056806;28;20053;-64
2023/06/08 10:49:51;;;;;;;7.80;5.32;;;;;;;;;;5064436;28;20045;-64
2023/06/08 10:52:19;;;;;;;7.85;4.90;;;;;;;;;;5047575;28;20070;-64
2023/06/08 10:54:48;;;;;;;10.30;5.13;;;;;;;;;;5043031;28;20088;-64
2023/06/08 10:57:34;;;;;;;9.60;5.15;;;;;;;;;;5043566;28;20418;-64
2023/06/08 11:00:00;;;;;;;5.72;4.70;;;;;;;;;;5043674;28;20150;-64
2023/06/08 11:02:29;;;;;;;6.28;4.22;;;;;;;;;;5043387;28;20541;-64
2023/06/08 11:04:58;;;;;;;8.45;4.40;;;;;;;;;;5042405;28;20136;-64
2023/06/08 11:07:37;;;;;;;6.63;4.20;;;;;;;;;;5042418;28;20049;-64
2023/06/08 11:10:04;;;;;;;7.95;4.25;;;;;;;;;;5025632;28;20041;-64
2023/06/08 11:12:30;;;;;;;8.27;4.35;;;;;;;;;;5040462;28;20053;-63
2023/06/08 11:14:56;;;;;;;9.95;5.15;;;;;;;;;;5042118;28;20050;-63
2023/06/08 11:17:23;;;;;;;5.32;4.45;;;;;;;;;;5041362;28;20111;-64
2023/06/08 11:19:49;;;;;;;8.00;5.43;;;;;;;;;;5042530;28;20057;-64
2023/06/08 11:22:16;;;;;;;7.50;4.30;;;;;;;;;;5042601;28;20049;-64
2023/06/08 11:24:43;;;;;;;10.77;5.13;;;;;;;;;;5022148;28;20099;-66
2023/06/08 11:27:15;;;;;;;7.85;4.53;;;;;;;;;;5042679;28;20056;-66
2023/06/08 11:29:41;;;;;;;10.68;5.00;;;;;;;;;;5043306;28;20075;-64
2023/06/08 11:32:11;;;;;;;12.65;4.40;;;;;;;;;;5042814;28;20740;-66
2023/06/08 11:34:38;;;;;;;5.72;3.65;;;;;;;;;;5043811;28;20054;-66
2023/06/08 11:37:04;;;;;;;9.90;3.83;;;;;;;;;;5042386;28;20121;-66
2023/06/08 11:39:33;;;;;;;6.88;3.63;;;;;;;;;;5042024;28;20053;-65
2023/06/08 11:42:00;;;;;;;6.20;3.50;;;;;;;;;;5041878;28;20073;-64
2023/06/08 11:44:26;;;;;;;5.75;3.47;;;;;;;;;;5042736;28;20058;-64
2023/06/08 11:46:53;;;;;;;8.07;4.25;;;;;;;;;;5043067;28;20530;-64
2023/06/08 11:49:19;;;;;;;5.88;3.55;;;;;;;;;;5042102;28;20053;-64
2023/06/08 11:51:47;;;;;;;8.75;3.75;;;;;;;;;;5043191;28;20495;-64
2023/06/08 11:54:14;;;;;;;10.45;3.90;;;;;;;;;;5043084;28;20062;-63
2023/06/08 11:56:41;;;;;;;12.32;4.40;;;;;;;;;;5047007;28;20049;-63
2023/06/08 11:59:08;;;;;;;8.70;3.97;;;;;;;;;;5054621;28;20053;-63
2023/06/08 12:01:35;;;;;;;6.30;3.78;;;;;;;;;;5031818;28;20200;-64
2023/06/08 12:04:11;;;;;;;3.70;3.17;;;;;;;;;;5042847;28;20100;-65
2023/06/08 12:06:39;;;;;;;7.15;3.75;;;;;;;;;;5025352;28;20061;-65
2023/06/08 12:09:07;;;;;;;7.30;3.53;;;;;;;;;;5042209;28;20084;-64
2023/06/08 12:11:34;;;;;;;8.23;4.55;;;;;;;;;;5043037;28;20172;-64
2023/06/08 12:14:01;;;;;;;4.70;2.95;;;;;;;;;;5045185;28;20136;-64
2023/06/08 12:16:27;;;;;;;8.60;4.00;;;;;;;;;;5045471;28;20437;-64
2023/06/08 12:18:55;;;;;;;6.93;4.05;;;;;;;;;;5029032;28;20053;-64
2023/06/08 12:21:22;;;;;;;8.02;3.83;;;;;;;;;;5044756;28;20096;-64
2023/06/08 12:23:48;;;;;;;5.53;3.85;;;;;;;;;;5045946;28;20053;-64
2023/06/08 12:26:14;;;;;;;5.53;3.25;;;;;;;;;;5027363;28;20061;-64
2023/06/08 12:28:42;;;;;;;11.77;4.10;;;;;;;;;;5045510;28;20050;-64
2023/06/08 12:31:08;;;;;;;4.82;3.10;;;;;;;;;;5046018;28;20049;-64
2023/06/08 12:33:35;;;;;;;5.95;2.92;;;;;;;;;;5025776;28;20050;-64
2023/06/08 12:36:01;;;;;;;7.00;3.78;;;;;;;;;;5025646;28;20151;-65
2023/06/08 12:38:28;;;;;;;5.57;3.50;;;;;;;;;;5045362;28;20515;-64
2023/06/08 12:40:56;;;;;;;5.38;3.58;;;;;;;;;;5044892;28;20050;-65
2023/06/08 12:43:22;;;;;;;10.15;3.97;;;;;;;;;;5045572;28;20069;-64
2023/06/08 12:45:49;;;;;;;5.07;3.00;;;;;;;;;;5066251;28;20059;-63
2023/06/08 12:48:16;;;;;;;5.85;3.28;;;;;;;;;;5065280;28;20049;-64
2023/06/08 12:50:42;;;;;;;3.63;3.10;;;;;;;;;;5047805;28;20057;-64
2023/06/08 12:53:09;;;;;;;4.45;3.05;;;;;;;;;;5065702;28;20080;-64
2023/06/08 12:55:35;;;;;;;10.77;3.30;;;;;;;;;;5045566;28;20084;-63
2023/06/08 12:58:02;;;;;;;5.93;3.72;;;;;;;;;;5044986;28;20168;-63
2023/06/08 13:00:28;;;;;;;7.72;3.00;;;;;;;;;;5045990;28;20530;-64
2023/06/08 13:02:57;;;;;;;8.10;3.80;;;;;;;;;;5045615;28;20576;-64
2023/06/08 13:05:25;;;;;;;7.93;3.03;;;;;;;;;;5045433;28;20064;-65
2023/06/08 13:07:51;;;;;;;6.72;3.70;;;;;;;;;;5045428;28;20593;-65
2023/06/08 13:10:18;;;;;;;7.07;3.28;;;;;;;;;;5044698;28;21505;-64
2023/06/08 13:12:45;;;;;;;10.95;3.47;;;;;;;;;;5027686;28;20061;-64
2023/06/08 13:15:11;;;;;;;6.80;3.47;;;;;;;;;;5044935;28;20050;-65
2023/06/08 13:17:38;;;;;;;7.70;3.50;;;;;;;;;;5045741;28;20084;-64
2023/06/08 13:20:04;;;;;;;5.32;3.47;;;;;;;;;;5044976;28;20057;-65
2023/06/08 13:22:32;;;;;;;3.75;2.75;;;;;;;;;;5044758;28;20072;-65
2023/06/08 13:24:58;;;;;;;6.22;3.15;;;;;;;;;;5044005;28;20522;-65
2023/06/08 13:27:25;;;;;;;5.22;3.30;;;;;;;;;;5027557;28;20524;-64
2023/06/08 13:29:51;;;;;;;7.13;3.65;;;;;;;;;;5044794;28;20049;-64
2023/06/08 13:32:18;;;;;;;7.75;3.40;;;;;;;;;;5044178;28;20053;-64
2023/06/08 13:34:44;;;;;;;5.70;3.17;;;;;;;;;;5043845;28;20055;-64
2023/06/08 13:37:10;;;;;;;6.55;2.97;;;;;;;;;;5049271;28;20140;-64
2023/06/08 13:39:37;;;;;;;3.53;2.83;;;;;;;;;;5044738;28;20152;-64
2023/06/08 13:42:04;;;;;;;7.22;3.33;;;;;;;;;;5045506;28;20423;-64
2023/06/08 13:44:31;;;;;;;6.75;3.42;;;;;;;;;;5045029;28;20060;-64
2023/06/08 13:46:59;;;;;;;6.55;3.10;;;;;;;;;;5044751;28;20056;-64
2023/06/08 13:49:26;;;;;;;11.25;3.63;;;;;;;;;;5044785;28;20111;-65
2023/06/08 13:51:52;;;;;;;7.03;3.05;;;;;;;;;;5045012;28;20132;-64
2023/06/08 13:54:19;;;;;;;5.28;3.03;;;;;;;;;;5044502;28;20084;-64
2023/06/08 13:56:45;;;;;;;5.15;3.40;;;;;;;;;;5044731;28;20053;-64
2023/06/08 13:59:12;;;;;;;6.55;4.13;;;;;;;;;;5043999;28;20059;-64
2023/06/08 14:01:38;;;;;;;5.32;3.28;;;;;;;;;;5044810;28;20116;-65
2023/06/08 14:04:05;;;;;;;3.92;2.67;;;;;;;;;;5026558;28;20081;-66
2023/06/08 14:06:31;;;;;;;3.42;2.60;;;;;;;;;;5044587;28;20165;-64
2023/06/08 14:08:59;;;;;;;8.88;3.47;;;;;;;;;;5044725;28;20563;-65
2023/06/08 14:11:26;;;;;;;4.07;3.15;;;;;;;;;;5044687;28;20057;-65
2023/06/08 14:13:52;;;;;;;7.38;3.05;;;;;;;;;;5063448;28;20141;-65
2023/06/08 14:16:19;;;;;;;6.43;3.10;;;;;;;;;;5066376;28;20053;-65
2023/06/08 14:18:46;;;;;;;7.93;3.17;;;;;;;;;;5064024;28;20091;-64
2023/06/08 14:21:12;;;;;;;6.20;2.95;;;;;;;;;;5046584;28;20046;-64
2023/06/08 14:23:38;;;;;;;6.95;3.33;;;;;;;;;;5044417;28;20054;-65
2023/06/08 14:26:05;;;;;;;4.63;3.00;;;;;;;;;;5044264;28;20119;-65
2023/06/08 14:28:32;;;;;;;5.00;2.90;;;;;;;;;;5044089;28;20546;-65
2023/06/08 14:31:00;;;;;;;7.18;3.03;;;;;;;;;;5044134;28;20123;-65
2023/06/08 14:33:26;;;;;;;6.15;2.53;;;;;;;;;;5043805;28;20053;-66
2023/06/08 14:35:53;;;;;;;8.30;3.17;;;;;;;;;;5043557;28;20057;-65
2023/06/08 14:38:19;;;;;;;4.32;2.72;;;;;;;;;;5042549;28;20927;-65